Time;durP1;ratioP1;P1;durP2;ratioP2;P2;SDS_P1;SDS_P2;PMS_P1;PMS_P2;Temp;Humidity;BMP_temperature;BMP_pressure;BME280_temperature;BME280_humidity;BME280_pressure;Samples;Min_cycle;Max_cycle;Signal;HPM_P1;HPM_P2
2023/03/15 00:00:41;;;;;;;6.60;3.25;;;;;;;;;;5035210;28;20120;-77
2023/03/15 00:03:07;;;;;;;5.47;3.00;;;;;;;;;;5034828;28;20040;-77
2023/03/15 00:05:32;;;;;;;5.43;3.15;;;;;;;;;;5035177;28;20029;-77
2023/03/15 00:07:57;;;;;;;5.43;3.35;;;;;;;;;;5016699;28;20107;-76
2023/03/15 00:10:23;;;;;;;6.68;3.33;;;;;;;;;;5052335;28;20033;-76
2023/03/15 00:12:48;;;;;;;8.30;4.00;;;;;;;;;;5035216;28;20040;-77
2023/03/15 00:15:14;;;;;;;6.30;3.55;;;;;;;;;;5052287;28;20025;-77
2023/03/15 00:17:40;;;;;;;7.07;3.50;;;;;;;;;;5050945;28;20423;-77
2023/03/15 00:20:05;;;;;;;6.03;3.20;;;;;;;;;;5052275;28;20439;-78
2023/03/15 00:22:31;;;;;;;6.35;3.90;;;;;;;;;;5034336;28;20045;-77
2023/03/15 00:24:57;;;;;;;5.20;3.25;;;;;;;;;;5052385;28;20158;-77
2023/03/15 00:27:22;;;;;;;5.68;3.90;;;;;;;;;;5052171;28;20119;-77
2023/03/15 00:29:48;;;;;;;7.80;3.50;;;;;;;;;;5052465;28;20033;-77
2023/03/15 00:32:13;;;;;;;7.63;3.80;;;;;;;;;;5034161;28;20550;-77
2023/03/15 00:34:38;;;;;;;6.57;3.50;;;;;;;;;;5034209;28;20037;-77
2023/03/15 00:37:04;;;;;;;5.70;3.50;;;;;;;;;;5052118;28;20040;-77
2023/03/15 00:39:29;;;;;;;8.07;3.78;;;;;;;;;;5034113;28;20033;-78
2023/03/15 00:41:58;;;;;;;6.53;3.67;;;;;;;;;;5034034;28;20040;-77
2023/03/15 00:44:24;;;;;;;6.60;3.55;;;;;;;;;;5051890;28;20495;-77
2023/03/15 00:46:49;;;;;;;7.68;3.83;;;;;;;;;;5017528;28;20094;-77
2023/03/15 00:49:15;;;;;;;7.82;3.38;;;;;;;;;;5034304;28;20379;-77
2023/03/15 00:51:40;;;;;;;7.10;3.42;;;;;;;;;;5051569;28;20029;-77
2023/03/15 00:54:06;;;;;;;7.00;3.35;;;;;;;;;;5053264;28;20476;-77
2023/03/15 00:56:31;;;;;;;5.75;3.30;;;;;;;;;;5058280;28;20523;-77
2023/03/15 00:58:57;;;;;;;8.50;4.03;;;;;;;;;;5033759;28;20033;-77
2023/03/15 01:01:23;;;;;;;4.95;3.25;;;;;;;;;;5022502;28;20560;-77
2023/03/15 01:03:49;;;;;;;6.13;3.72;;;;;;;;;;5058393;28;20036;-77
2023/03/15 01:06:16;;;;;;;6.63;3.50;;;;;;;;;;5044262;28;20035;-77
2023/03/15 01:08:42;;;;;;;6.57;3.80;;;;;;;;;;5023095;28;20052;-76
2023/03/15 01:11:08;;;;;;;6.15;3.63;;;;;;;;;;5061188;28;20040;-77
2023/03/15 01:13:33;;;;;;;;;;;;;;;;;;5038836;28;20028;-77
2023/03/15 01:15:59;;;;;;;7.88;3.80;;;;;;;;;;5041844;28;19927;-76
2023/03/15 01:18:24;;;;;;;7.47;3.35;;;;;;;;;;5047803;28;20021;-77
2023/03/15 01:20:50;;;;;;;8.75;4.55;;;;;;;;;;5021456;28;20419;-77
2023/03/15 01:23:17;;;;;;;6.03;3.75;;;;;;;;;;5038503;28;20480;-77
2023/03/15 01:25:45;;;;;;;5.72;3.70;;;;;;;;;;5034889;28;20766;-76
2023/03/15 01:28:11;;;;;;;8.50;3.75;;;;;;;;;;5056829;28;20024;-76
2023/03/15 01:30:36;;;;;;;7.53;3.85;;;;;;;;;;5057685;28;20036;-77
2023/03/15 01:33:02;;;;;;;7.47;3.80;;;;;;;;;;5057198;28;20025;-78
2023/03/15 01:35:27;;;;;;;8.30;4.18;;;;;;;;;;5040622;28;20127;-78
2023/03/15 01:37:53;;;;;;;6.85;4.07;;;;;;;;;;5068641;28;20024;-77
2023/03/15 01:40:18;;;;;;;9.80;4.00;;;;;;;;;;5021721;28;20033;-77
2023/03/15 01:43:10;;;;;;;7.32;4.00;;;;;;;;;;5037751;28;20063;-78
2023/03/15 01:45:48;;;;;;;7.40;4.38;;;;;;;;;;5044771;28;20117;-78
2023/03/15 01:48:14;;;;;;;11.15;4.15;;;;;;;;;;5037391;28;20074;-77
2023/03/15 01:50:40;;;;;;;6.70;4.00;;;;;;;;;;5066188;28;20548;-78
2023/03/15 01:53:05;;;;;;;8.55;4.30;;;;;;;;;;5040300;28;20121;-78
2023/03/15 01:55:31;;;;;;;8.52;4.40;;;;;;;;;;5056817;28;20060;-77
2023/03/15 01:58:08;;;;;;;8.63;4.00;;;;;;;;;;5056485;28;20040;-77
2023/03/15 02:00:38;;;;;;;6.25;4.15;;;;;;;;;;5056855;28;20040;-77
2023/03/15 02:03:13;;;;;;;8.65;4.32;;;;;;;;;;5041023;28;20027;-77
2023/03/15 02:05:44;;;;;;;8.55;4.53;;;;;;;;;;5023745;28;20036;-77
2023/03/15 02:08:14;;;;;;;6.78;4.60;;;;;;;;;;5040248;28;20024;-77
2023/03/15 02:10:41;;;;;;;8.48;4.35;;;;;;;;;;5055619;28;20024;-77
2023/03/15 02:13:08;;;;;;;7.70;4.45;;;;;;;;;;5056703;28;20044;-77
2023/03/15 02:15:33;;;;;;;7.82;4.45;;;;;;;;;;5026811;28;20033;-77
2023/03/15 02:18:03;;;;;;;9.48;4.25;;;;;;;;;;5056791;28;20047;-77
2023/03/15 02:20:33;;;;;;;8.98;4.35;;;;;;;;;;5037147;28;20048;-77
2023/03/15 02:23:01;;;;;;;8.48;4.25;;;;;;;;;;5029497;28;20509;-77
2023/03/15 02:25:46;;;;;;;9.43;4.60;;;;;;;;;;5039235;28;20024;-77
2023/03/15 02:28:12;;;;;;;7.00;4.05;;;;;;;;;;5015617;28;20461;-77
2023/03/15 02:30:38;;;;;;;7.03;4.30;;;;;;;;;;5055892;28;20084;-77
2023/03/15 02:33:04;;;;;;;8.00;4.25;;;;;;;;;;5074311;28;20036;-77
2023/03/15 02:35:30;;;;;;;6.35;4.05;;;;;;;;;;5056196;28;20108;-77
2023/03/15 02:37:56;;;;;;;9.48;4.28;;;;;;;;;;5039766;28;20037;-77
2023/03/15 02:40:23;;;;;;;13.10;4.50;;;;;;;;;;5020575;28;20523;-77
2023/03/15 02:42:50;;;;;;;8.15;4.20;;;;;;;;;;5032498;28;20040;-77
2023/03/15 02:45:16;;;;;;;7.55;4.38;;;;;;;;;;5055453;28;20093;-77
2023/03/15 02:47:41;;;;;;;7.32;3.67;;;;;;;;;;5055955;28;20102;-77
2023/03/15 02:50:07;;;;;;;8.38;4.43;;;;;;;;;;5038384;28;20028;-77
2023/03/15 02:52:32;;;;;;;10.00;4.82;;;;;;;;;;5055412;28;20062;-77
2023/03/15 02:55:01;;;;;;;7.05;4.93;;;;;;;;;;5054437;28;20048;-77
2023/03/15 02:57:26;;;;;;;;;;;;;;;;;;5039464;28;20422;-77
2023/03/15 02:59:54;;;;;;;6.25;3.90;;;;;;;;;;5038672;28;19912;-77
2023/03/15 03:02:20;;;;;;;8.90;4.10;;;;;;;;;;5038543;28;20052;-77
2023/03/15 03:04:45;;;;;;;5.60;3.95;;;;;;;;;;5038080;28;20043;-75
2023/03/15 03:07:11;;;;;;;9.15;4.78;;;;;;;;;;5073436;28;20115;-75
2023/03/15 03:09:46;;;;;;;9.75;5.05;;;;;;;;;;5005643;28;20052;-75
2023/03/15 03:12:13;;;;;;;7.15;4.45;;;;;;;;;;5027902;28;20119;-75
2023/03/15 03:14:38;;;;;;;9.55;4.45;;;;;;;;;;5028738;28;20124;-75
2023/03/15 03:17:08;;;;;;;9.82;4.65;;;;;;;;;;5019946;28;20063;-76
2023/03/15 03:19:34;;;;;;;10.82;5.75;;;;;;;;;;5035780;28;20036;-76
2023/03/15 03:21:59;;;;;;;9.73;4.88;;;;;;;;;;5053031;28;20089;-76
2023/03/15 03:24:25;;;;;;;7.32;4.40;;;;;;;;;;5019401;28;20475;-76
2023/03/15 03:26:56;;;;;;;7.32;4.70;;;;;;;;;;5020468;28;20074;-77
2023/03/15 03:29:24;;;;;;;8.52;4.20;;;;;;;;;;5054947;28;20032;-77
2023/03/15 03:31:51;;;;;;;7.35;4.75;;;;;;;;;;5038309;28;20727;-77
2023/03/15 03:34:19;;;;;;;11.13;4.90;;;;;;;;;;5038956;28;20119;-77
2023/03/15 03:36:45;;;;;;;9.63;4.78;;;;;;;;;;5037939;28;20101;-77
2023/03/15 03:39:15;;;;;;;7.95;4.63;;;;;;;;;;5044873;28;20072;-76
2023/03/15 03:41:42;;;;;;;9.25;4.78;;;;;;;;;;5052937;28;20447;-78
2023/03/15 03:44:10;;;;;;;9.68;4.82;;;;;;;;;;5019339;28;20101;-76
2023/03/15 03:46:37;;;;;;;10.15;4.85;;;;;;;;;;5035353;28;20020;-76
2023/03/15 03:49:02;;;;;;;5.97;4.07;;;;;;;;;;5018442;28;20040;-77
2023/03/15 03:51:28;;;;;;;11.25;4.80;;;;;;;;;;5052900;28;20032;-76
2023/03/15 03:53:53;;;;;;;8.48;4.72;;;;;;;;;;5053315;28;20098;-77
2023/03/15 03:56:19;;;;;;;7.65;4.68;;;;;;;;;;5034645;28;20116;-77
2023/03/15 03:58:44;;;;;;;9.68;4.65;;;;;;;;;;5052783;28;20067;-77
2023/03/15 04:01:26;;;;;;;8.15;4.60;;;;;;;;;;5016402;28;20036;-75
2023/03/15 04:03:53;;;;;;;7.75;4.60;;;;;;;;;;5027874;28;20479;-75
2023/03/15 04:06:21;;;;;;;8.10;4.38;;;;;;;;;;5034369;28;20491;-75
2023/03/15 04:08:47;;;;;;;12.02;5.05;;;;;;;;;;5034064;28;20035;-75
2023/03/15 04:11:18;;;;;;;9.88;4.57;;;;;;;;;;5024713;28;20074;-74
2023/03/15 04:13:50;;;;;;;6.70;4.30;;;;;;;;;;5023096;28;20087;-76
2023/03/15 04:16:15;;;;;;;9.88;4.95;;;;;;;;;;5052327;28;20066;-75
2023/03/15 04:18:55;;;;;;;7.75;4.65;;;;;;;;;;5018765;28;20029;-75
2023/03/15 04:21:21;;;;;;;7.95;4.70;;;;;;;;;;5033860;28;20044;-77
2023/03/15 04:23:48;;;;;;;8.40;4.43;;;;;;;;;;5016159;28;20028;-76
2023/03/15 04:26:36;;;;;;;8.32;4.53;;;;;;;;;;5032591;28;20037;-76
2023/03/15 04:29:20;;;;;;;6.65;4.10;;;;;;;;;;5008726;28;20052;-77
2023/03/15 04:32:05;;;;;;;8.35;4.80;;;;;;;;;;5020966;28;20053;-76
2023/03/15 04:34:43;;;;;;;10.45;4.43;;;;;;;;;;5032966;28;20033;-77
2023/03/15 04:37:32;;;;;;;7.18;4.60;;;;;;;;;;5018654;28;20496;-77
2023/03/15 04:40:17;;;;;;;10.57;5.32;;;;;;;;;;5020015;28;20036;-75
2023/03/15 04:42:56;;;;;;;8.52;4.50;;;;;;;;;;5033828;28;20044;-76
2023/03/15 04:45:36;;;;;;;9.13;5.43;;;;;;;;;;5022784;28;20752;-76
2023/03/15 04:48:30;;;;;;;8.10;4.47;;;;;;;;;;5020702;28;20029;-79
2023/03/15 04:51:14;;;;;;;10.85;5.97;;;;;;;;;;5051616;28;20098;-76
2023/03/15 04:53:47;;;;;;;11.63;6.60;;;;;;;;;;5033682;28;20033;-75
2023/03/15 04:56:37;;;;;;;13.07;6.03;;;;;;;;;;5049958;28;20059;-77
2023/03/15 04:59:21;;;;;;;11.75;6.30;;;;;;;;;;5051570;28;20488;-77
2023/03/15 05:02:00;;;;;;;13.30;6.28;;;;;;;;;;5050580;28;20095;-77
2023/03/15 05:04:34;;;;;;;10.88;5.03;;;;;;;;;;5049870;28;20021;-80
2023/03/15 05:07:35;;;;;;;10.32;5.55;;;;;;;;;;5010013;28;20090;-78
2023/03/15 05:10:21;;;;;;;8.68;5.43;;;;;;;;;;5041986;28;20069;-77
2023/03/15 05:13:05;;;;;;;8.95;5.32;;;;;;;;;;5049847;28;20862;-79
2023/03/15 05:15:49;;;;;;;10.82;5.28;;;;;;;;;;5042161;28;20565;-76
2023/03/15 05:18:33;;;;;;;7.93;5.32;;;;;;;;;;5045145;28;20194;-78
2023/03/15 05:21:17;;;;;;;8.77;4.90;;;;;;;;;;5049512;28;20436;-79
2023/03/15 05:23:52;;;;;;;10.85;5.45;;;;;;;;;;5049125;28;20384;-78
2023/03/15 05:26:47;;;;;;;10.90;6.25;;;;;;;;;;5014688;28;20042;-76
2023/03/15 05:29:39;;;;;;;10.32;6.32;;;;;;;;;;5027722;28;20041;-80
2023/03/15 05:32:25;;;;;;;11.25;7.22;;;;;;;;;;5049501;28;20032;-80
2023/03/15 05:35:00;;;;;;;9.80;7.07;;;;;;;;;;5051359;28;20059;-80
2023/03/15 05:37:56;;;;;;;10.40;7.10;;;;;;;;;;5030084;28;20091;-79
2023/03/15 05:40:32;;;;;;;12.40;8.15;;;;;;;;;;5050124;28;20045;-79
2023/03/15 05:43:27;;;;;;;13.27;8.02;;;;;;;;;;5025843;28;20054;-79
2023/03/15 05:46:11;;;;;;;10.13;7.47;;;;;;;;;;5055516;28;20126;-78
2023/03/15 05:49:09;;;;;;;;;;;;;;;;;;5013672;28;20128;-78
2023/03/15 05:51:48;;;;;;;13.25;8.07;;;;;;;;;;5053938;28;19962;-81
2023/03/15 05:54:40;;;;;;;13.85;9.38;;;;;;;;;;5029719;28;20044;-79
2023/03/15 05:57:23;;;;;;;16.05;8.98;;;;;;;;;;5054944;28;20045;-79
2023/03/15 06:00:01;;;;;;;14.32;9.05;;;;;;;;;;5037376;28;20036;-79
2023/03/15 06:02:41;;;;;;;16.42;10.23;;;;;;;;;;5055061;28;20062;-79
2023/03/15 06:05:21;;;;;;;13.93;9.75;;;;;;;;;;5036816;28;20029;-79
2023/03/15 06:07:47;;;;;;;13.85;8.95;;;;;;;;;;5037055;28;20028;-78
2023/03/15 06:10:14;;;;;;;14.05;9.02;;;;;;;;;;5036750;28;20021;-78
2023/03/15 06:12:40;;;;;;;13.43;8.82;;;;;;;;;;5020412;28;20514;-80
2023/03/15 06:15:07;;;;;;;15.38;8.85;;;;;;;;;;5020790;28;20472;-80
2023/03/15 06:17:33;;;;;;;11.32;8.32;;;;;;;;;;5036650;28;20037;-79
2023/03/15 06:19:58;;;;;;;13.23;8.93;;;;;;;;;;5036604;28;20112;-79
2023/03/15 06:22:24;;;;;;;13.23;9.07;;;;;;;;;;5036898;28;20119;-78
2023/03/15 06:24:57;;;;;;;14.45;9.40;;;;;;;;;;5037721;28;20024;-80
2023/03/15 06:27:23;;;;;;;11.90;8.80;;;;;;;;;;5019910;28;20029;-80
2023/03/15 06:29:50;;;;;;;12.82;8.90;;;;;;;;;;5036633;28;20028;-80
2023/03/15 06:32:19;;;;;;;15.02;8.80;;;;;;;;;;5004684;28;20104;-80
2023/03/15 06:34:44;;;;;;;12.35;8.52;;;;;;;;;;5036603;28;20024;-79
2023/03/15 06:37:12;;;;;;;14.98;9.13;;;;;;;;;;5023738;28;20128;-79
2023/03/15 06:39:38;;;;;;;;;;;;;;;;;;5020354;28;20132;-79
2023/03/15 06:42:05;;;;;;;12.85;8.90;;;;;;;;;;5054422;28;20011;-79
2023/03/15 06:44:33;;;;;;;12.35;8.88;;;;;;;;;;5035928;28;20124;-79
2023/03/15 06:47:03;;;;;;;13.98;9.10;;;;;;;;;;5036558;28;20025;-79
2023/03/15 06:49:29;;;;;;;17.05;8.98;;;;;;;;;;5054079;28;20132;-79
2023/03/15 06:51:55;;;;;;;13.30;8.77;;;;;;;;;;5054032;28;20389;-79
2023/03/15 06:54:21;;;;;;;13.38;9.05;;;;;;;;;;5035974;28;20114;-80
2023/03/15 06:56:46;;;;;;;14.77;8.75;;;;;;;;;;5035797;28;20075;-80
2023/03/15 06:59:12;;;;;;;13.32;9.48;;;;;;;;;;5053569;28;20033;-81
2023/03/15 07:01:37;;;;;;;11.23;8.77;;;;;;;;;;5053794;28;20045;-80
2023/03/15 07:04:03;;;;;;;12.95;8.68;;;;;;;;;;5033368;28;20049;-79
2023/03/15 07:06:28;;;;;;;13.43;8.52;;;;;;;;;;5032550;28;20127;-79
2023/03/15 07:08:54;;;;;;;13.73;9.32;;;;;;;;;;5029711;28;20047;-78
2023/03/15 07:11:19;;;;;;;13.10;8.88;;;;;;;;;;5052549;28;20029;-79
2023/03/15 07:13:45;;;;;;;12.85;8.70;;;;;;;;;;5053209;28;20043;-79
2023/03/15 07:16:10;;;;;;;15.43;7.70;;;;;;;;;;5035818;28;20495;-79
2023/03/15 07:18:36;;;;;;;12.35;9.20;;;;;;;;;;5052180;28;20029;-79
2023/03/15 07:21:02;;;;;;;11.52;8.57;;;;;;;;;;5053254;28;20953;-78
2023/03/15 07:23:27;;;;;;;14.70;8.98;;;;;;;;;;5053442;28;20079;-79
2023/03/15 07:25:53;;;;;;;12.15;8.43;;;;;;;;;;5051965;28;20454;-79
2023/03/15 07:28:19;;;;;;;13.23;8.88;;;;;;;;;;5052014;28;20036;-79
2023/03/15 07:30:51;;;;;;;11.27;8.50;;;;;;;;;;5053065;28;20531;-79
2023/03/15 07:33:16;;;;;;;13.00;8.77;;;;;;;;;;5052941;28;20040;-79
2023/03/15 07:35:42;;;;;;;13.43;9.20;;;;;;;;;;5051717;28;20051;-80
2023/03/15 07:38:07;;;;;;;12.50;8.20;;;;;;;;;;5035109;28;20040;-79
2023/03/15 07:40:33;;;;;;;13.85;8.10;;;;;;;;;;5051667;28;20032;-80
2023/03/15 07:42:58;;;;;;;9.75;7.55;;;;;;;;;;5052867;28;20035;-80
2023/03/15 07:45:24;;;;;;;11.90;9.07;;;;;;;;;;5053018;28;20108;-79
2023/03/15 07:47:49;;;;;;;12.45;8.20;;;;;;;;;;5053105;28;20036;-79
2023/03/15 07:50:16;;;;;;;11.88;8.05;;;;;;;;;;5053260;28;20384;-79
2023/03/15 07:52:41;;;;;;;10.80;7.90;;;;;;;;;;5051908;28;20517;-80
2023/03/15 07:55:07;;;;;;;10.98;7.82;;;;;;;;;;5053789;28;20056;-79
2023/03/15 07:57:33;;;;;;;12.00;7.13;;;;;;;;;;5069969;28;20044;-80
2023/03/15 07:59:59;;;;;;;15.43;7.55;;;;;;;;;;5030098;28;20051;-79
2023/03/15 08:02:25;;;;;;;13.20;7.88;;;;;;;;;;5070225;28;20028;-79
2023/03/15 08:04:50;;;;;;;13.68;7.85;;;;;;;;;;5071323;28;20059;-80
2023/03/15 08:07:16;;;;;;;12.10;7.65;;;;;;;;;;5051475;28;20090;-79
2023/03/15 08:09:42;;;;;;;14.77;8.18;;;;;;;;;;5070834;28;20032;-80
2023/03/15 08:12:07;;;;;;;;;;;;;;;;;;5036709;28;20058;-82
2023/03/15 08:14:33;;;;;;;14.18;7.32;;;;;;;;;;5065348;28;19909;-80
2023/03/15 08:16:58;;;;;;;13.57;7.40;;;;;;;;;;5065302;28;20036;-78
2023/03/15 08:19:24;;;;;;;10.13;7.80;;;;;;;;;;5054791;28;20081;-80
2023/03/15 08:21:52;;;;;;;10.80;7.43;;;;;;;;;;5053782;28;20066;-79
2023/03/15 08:24:18;;;;;;;11.07;7.32;;;;;;;;;;5040103;28;20029;-79
2023/03/15 08:26:43;;;;;;;10.27;7.35;;;;;;;;;;5052925;28;20040;-79
2023/03/15 08:29:09;;;;;;;11.00;7.40;;;;;;;;;;5034824;28;20170;-79
2023/03/15 08:31:35;;;;;;;;;;;;;;;;;;5035442;28;20044;-80
2023/03/15 08:34:01;;;;;;;11.88;7.40;;;;;;;;;;5047357;28;19909;-78
2023/03/15 08:36:26;;;;;;;13.38;8.32;;;;;;;;;;5052139;28;20044;-78
2023/03/15 08:38:51;;;;;;;10.43;7.45;;;;;;;;;;5052699;28;20029;-81
2023/03/15 08:41:17;;;;;;;11.30;7.75;;;;;;;;;;5065292;28;20415;-79
2023/03/15 08:43:42;;;;;;;13.75;8.27;;;;;;;;;;5053813;28;20032;-80
2023/03/15 08:46:08;;;;;;;12.35;7.95;;;;;;;;;;5053756;28;20800;-79
2023/03/15 08:48:33;;;;;;;9.82;7.10;;;;;;;;;;5045962;28;20103;-81
2023/03/15 08:51:03;;;;;;;9.90;7.25;;;;;;;;;;5071130;28;20052;-79
2023/03/15 08:53:29;;;;;;;10.05;7.30;;;;;;;;;;5059105;28;20033;-81
2023/03/15 08:55:54;;;;;;;9.73;7.13;;;;;;;;;;5071620;28;20056;-81
2023/03/15 08:58:20;;;;;;;12.63;7.60;;;;;;;;;;5072381;28;20170;-80
2023/03/15 09:00:47;;;;;;;9.80;7.05;;;;;;;;;;5053875;28;20029;-80
2023/03/15 09:03:14;;;;;;;11.13;6.70;;;;;;;;;;5072508;28;20020;-82
2023/03/15 09:05:40;;;;;;;9.25;7.10;;;;;;;;;;5071952;28;20035;-79
2023/03/15 09:08:05;;;;;;;10.38;6.88;;;;;;;;;;5072172;28;20025;-80
2023/03/15 09:10:33;;;;;;;9.10;7.13;;;;;;;;;;5071987;28;20118;-81
2023/03/15 09:12:58;;;;;;;10.52;7.20;;;;;;;;;;5054472;28;20491;-78
2023/03/15 09:15:24;;;;;;;7.97;6.90;;;;;;;;;;5071629;28;20091;-78
2023/03/15 09:17:50;;;;;;;11.32;7.38;;;;;;;;;;5072012;28;20033;-79
2023/03/15 09:20:17;;;;;;;10.23;7.07;;;;;;;;;;5040712;28;20400;-79
2023/03/15 09:22:43;;;;;;;8.68;6.18;;;;;;;;;;5058177;28;20035;-80
2023/03/15 09:25:08;;;;;;;10.38;7.30;;;;;;;;;;5075820;28;20036;-79
2023/03/15 09:27:34;;;;;;;7.85;7.03;;;;;;;;;;5057960;28;20032;-79
2023/03/15 09:30:00;;;;;;;8.30;6.80;;;;;;;;;;5057729;28;20437;-78
2023/03/15 09:32:25;;;;;;;9.68;7.63;;;;;;;;;;5058071;28;20111;-79
2023/03/15 09:34:51;;;;;;;10.80;6.88;;;;;;;;;;5058141;28;20068;-79
2023/03/15 09:37:16;;;;;;;10.82;7.45;;;;;;;;;;5058324;28;20036;-79
2023/03/15 09:39:42;;;;;;;9.45;6.88;;;;;;;;;;5075529;28;20043;-78
2023/03/15 09:42:18;;;;;;;9.02;6.88;;;;;;;;;;5075729;28;20016;-79
2023/03/15 09:44:45;;;;;;;12.40;7.10;;;;;;;;;;5057831;28;20025;-82
2023/03/15 09:47:23;;;;;;;8.27;6.57;;;;;;;;;;5038555;28;20114;-79
2023/03/15 09:50:05;;;;;;;8.88;6.47;;;;;;;;;;5072545;28;20483;-79
2023/03/15 09:52:38;;;;;;;8.27;6.45;;;;;;;;;;5075636;28;20127;-79
2023/03/15 09:55:24;;;;;;;9.35;6.85;;;;;;;;;;5044668;28;20136;-78
2023/03/15 09:57:54;;;;;;;9.45;7.10;;;;;;;;;;5074268;28;20527;-79
2023/03/15 10:00:29;;;;;;;8.82;7.38;;;;;;;;;;5075004;28;20064;-79
2023/03/15 10:03:00;;;;;;;9.18;7.07;;;;;;;;;;5056877;28;20067;-79
2023/03/15 10:05:34;;;;;;;10.52;6.72;;;;;;;;;;5057760;28;20032;-81
2023/03/15 10:07:59;;;;;;;12.50;7.10;;;;;;;;;;5057633;28;20075;-78
2023/03/15 10:10:32;;;;;;;10.40;7.43;;;;;;;;;;5057498;28;20029;-80
2023/03/15 10:12:59;;;;;;;10.15;7.53;;;;;;;;;;5057182;28;20044;-80
2023/03/15 10:15:27;;;;;;;8.93;6.88;;;;;;;;;;5056650;28;20543;-79
2023/03/15 10:17:58;;;;;;;8.18;6.85;;;;;;;;;;5057207;28;20036;-79
2023/03/15 10:20:25;;;;;;;10.13;6.78;;;;;;;;;;5074732;28;20363;-79
2023/03/15 10:22:55;;;;;;;10.88;7.00;;;;;;;;;;5040594;28;20395;-80
2023/03/15 10:25:22;;;;;;;10.50;6.70;;;;;;;;;;5056793;28;20518;-80
2023/03/15 10:27:50;;;;;;;8.88;6.78;;;;;;;;;;5074854;28;20070;-78
2023/03/15 10:30:17;;;;;;;11.32;6.45;;;;;;;;;;5073589;28;20036;-80
2023/03/15 10:32:43;;;;;;;9.77;6.47;;;;;;;;;;5074992;28;20441;-79
2023/03/15 10:35:15;;;;;;;8.70;6.18;;;;;;;;;;5056721;28;20147;-81
2023/03/15 10:37:41;;;;;;;9.27;6.30;;;;;;;;;;5057061;28;20044;-80
2023/03/15 10:40:12;;;;;;;9.57;6.88;;;;;;;;;;5040139;28;20035;-80
2023/03/15 10:42:38;;;;;;;9.48;6.55;;;;;;;;;;5057385;28;20036;-80
2023/03/15 10:45:18;;;;;;;8.65;6.47;;;;;;;;;;5074378;28;20023;-78
2023/03/15 10:47:43;;;;;;;9.23;6.70;;;;;;;;;;5056694;28;20166;-79
2023/03/15 10:50:09;;;;;;;9.52;6.05;;;;;;;;;;5056238;28;20107;-78
2023/03/15 10:52:38;;;;;;;8.27;6.88;;;;;;;;;;5056511;28;20048;-78
2023/03/15 10:55:14;;;;;;;9.32;7.00;;;;;;;;;;5073438;28;20048;-78
2023/03/15 10:57:40;;;;;;;7.93;6.63;;;;;;;;;;5054309;28;20043;-80
2023/03/15 11:00:28;;;;;;;10.00;6.57;;;;;;;;;;5073306;28;20275;-80
2023/03/15 11:03:03;;;;;;;8.32;6.55;;;;;;;;;;5072380;28;20456;-79
2023/03/15 11:05:39;;;;;;;8.90;6.90;;;;;;;;;;5026819;28;20061;-79
2023/03/15 11:08:05;;;;;;;10.00;7.78;;;;;;;;;;5048446;28;20016;-79
2023/03/15 11:10:32;;;;;;;9.90;7.43;;;;;;;;;;5037153;28;20036;-78
2023/03/15 11:13:08;;;;;;;8.93;7.18;;;;;;;;;;5021997;28;20039;-81
2023/03/15 11:15:34;;;;;;;8.23;6.60;;;;;;;;;;5060527;28;20041;-79
2023/03/15 11:17:59;;;;;;;9.68;6.32;;;;;;;;;;5048282;28;20090;-80
2023/03/15 11:20:32;;;;;;;10.02;6.65;;;;;;;;;;5036287;28;20164;-80
2023/03/15 11:22:58;;;;;;;10.20;5.97;;;;;;;;;;5063022;28;20488;-80
2023/03/15 11:25:31;;;;;;;8.45;6.03;;;;;;;;;;5055313;28;20115;-79
2023/03/15 11:27:57;;;;;;;8.90;6.70;;;;;;;;;;5073894;28;20037;-79
2023/03/15 11:30:32;;;;;;;10.20;6.65;;;;;;;;;;5073213;28;20122;-79
2023/03/15 11:32:59;;;;;;;8.55;6.20;;;;;;;;;;5055358;28;20048;-80
2023/03/15 11:35:28;;;;;;;8.32;5.95;;;;;;;;;;5013370;28;20075;-79
2023/03/15 11:37:54;;;;;;;9.32;6.60;;;;;;;;;;5027603;28;20539;-80
2023/03/15 11:40:21;;;;;;;9.43;6.45;;;;;;;;;;5035937;28;20025;-77
2023/03/15 11:42:54;;;;;;;8.65;5.88;;;;;;;;;;5035068;28;20506;-78
2023/03/15 11:45:23;;;;;;;8.90;6.15;;;;;;;;;;5035099;28;20025;-78
2023/03/15 11:47:50;;;;;;;8.05;5.68;;;;;;;;;;5035470;28;20095;-78
2023/03/15 11:50:16;;;;;;;6.20;5.50;;;;;;;;;;5054605;28;20040;-78
2023/03/15 11:52:41;;;;;;;8.80;6.05;;;;;;;;;;5071777;28;20552;-78
2023/03/15 11:55:07;;;;;;;;;;;;;;;;;;5073063;28;20040;-78
2023/03/15 11:57:37;;;;;;;8.40;5.80;;;;;;;;;;5058820;28;19924;-79
2023/03/15 12:00:19;;;;;;;6.53;5.07;;;;;;;;;;5054942;28;20152;-78
2023/03/15 12:02:48;;;;;;;7.72;5.28;;;;;;;;;;5071934;28;20696;-78
2023/03/15 12:05:33;;;;;;;8.75;5.18;;;;;;;;;;5054469;28;20055;-78
2023/03/15 12:07:59;;;;;;;7.47;5.43;;;;;;;;;;5053367;28;20039;-80
2023/03/15 12:10:24;;;;;;;;;;;;;;;;;;5072396;28;20368;-80
2023/03/15 12:12:56;;;;;;;7.90;5.10;;;;;;;;;;5071320;28;19912;-80
2023/03/15 12:15:21;;;;;;;7.05;4.93;;;;;;;;;;5040965;28;20043;-79
2023/03/15 12:17:46;;;;;;;;;;;;;;;;;;5073186;28;20410;-79
2023/03/15 12:20:12;;;;;;;6.18;5.25;;;;;;;;;;5072389;28;20003;-79
2023/03/15 12:22:38;;;;;;;;;;;;;;;;;;5059528;28;20391;-79
2023/03/15 12:25:07;;;;;;;4.93;4.43;;;;;;;;;;5072128;28;19951;-79
2023/03/15 12:27:32;;;;;;;6.22;4.10;;;;;;;;;;5071979;28;20103;-80
2023/03/15 12:29:58;;;;;;;;;;;;;;;;;;5054038;28;20460;-79
2023/03/15 12:32:23;;;;;;;6.40;3.90;;;;;;;;;;5072339;28;19954;-80
2023/03/15 12:34:49;;;;;;;;;;;;;;;;;;5054233;28;20074;-79
2023/03/15 12:37:14;;;;;;;4.80;3.47;;;;;;;;;;5053546;28;19908;-80
2023/03/15 12:39:39;;;;;;;;;;;;;;;;;;5054347;28;20131;-79
2023/03/15 12:42:05;;;;;;;5.03;3.92;;;;;;;;;;5071056;28;19912;-79
2023/03/15 12:44:30;;;;;;;;;;;;;;;;;;5054666;28;20056;-79
2023/03/15 12:46:57;;;;;;;5.60;4.05;;;;;;;;;;5053327;28;19908;-79
2023/03/15 12:49:22;;;;;;;4.90;4.00;;;;;;;;;;5054513;28;20041;-79
2023/03/15 12:51:47;;;;;;;;;;;;;;;;;;5054441;28;20025;-79
2023/03/15 12:54:13;;;;;;;5.50;3.80;;;;;;;;;;5058300;28;20303;-79
2023/03/15 12:56:40;;;;;;;5.97;3.85;;;;;;;;;;5034371;28;20049;-80
2023/03/15 12:59:13;;;;;;;5.45;3.75;;;;;;;;;;5018156;28;20037;-78
2023/03/15 13:01:41;;;;;;;6.72;3.95;;;;;;;;;;5022638;28;20036;-78
2023/03/15 13:04:07;;;;;;;7.00;4.07;;;;;;;;;;5052477;28;20021;-79
2023/03/15 13:06:36;;;;;;;5.43;4.03;;;;;;;;;;5034831;28;20488;-80
2023/03/15 13:09:14;;;;;;;6.47;4.22;;;;;;;;;;5052464;28;20111;-80
2023/03/15 13:11:58;;;;;;;5.57;3.80;;;;;;;;;;5052528;28;20063;-79
2023/03/15 13:14:36;;;;;;;4.70;3.60;;;;;;;;;;5034138;28;20072;-79
2023/03/15 13:17:07;;;;;;;5.50;3.67;;;;;;;;;;5051726;28;20224;-78
2023/03/15 13:19:37;;;;;;;6.70;4.00;;;;;;;;;;5052201;28;20048;-79
2023/03/15 13:22:06;;;;;;;6.53;3.80;;;;;;;;;;5033794;28;20033;-79
2023/03/15 13:24:58;;;;;;;5.47;3.70;;;;;;;;;;5034480;28;20638;-78
2023/03/15 13:27:23;;;;;;;5.13;3.97;;;;;;;;;;5046792;28;20403;-78
2023/03/15 13:29:49;;;;;;;4.47;3.25;;;;;;;;;;5052092;28;20036;-78
2023/03/15 13:32:14;;;;;;;;;;;;;;;;;;5052394;28;20087;-78
2023/03/15 13:34:39;;;;;;;5.38;3.78;;;;;;;;;;5051646;28;19995;-79
2023/03/15 13:37:05;;;;;;;;;;;;;;;;;;5052790;28;20037;-79
2023/03/15 13:39:31;;;;;;;5.22;3.67;;;;;;;;;;5052374;28;19908;-79
2023/03/15 13:42:04;;;;;;;7.47;4.20;;;;;;;;;;5033803;28;20040;-79
2023/03/15 13:44:30;;;;;;;6.68;3.85;;;;;;;;;;5051461;28;20036;-79
2023/03/15 13:46:55;;;;;;;;;;;;;;;;;;5052401;28;20472;-78
2023/03/15 13:49:20;;;;;;;7.03;4.30;;;;;;;;;;5051660;28;19924;-80
2023/03/15 13:51:46;;;;;;;;;;;;;;;;;;5034533;28;20047;-79
2023/03/15 13:54:24;;;;;;;5.53;3.95;;;;;;;;;;5051606;28;19959;-79
2023/03/15 13:57:00;;;;;;;5.95;4.25;;;;;;;;;;5040982;28;20124;-79
2023/03/15 13:59:45;;;;;;;5.35;3.90;;;;;;;;;;5033803;28;20029;-79
2023/03/15 14:02:12;;;;;;;4.95;3.65;;;;;;;;;;5051398;28;20124;-79
2023/03/15 14:04:37;;;;;;;5.13;4.00;;;;;;;;;;5034065;28;20485;-78
2023/03/15 14:07:03;;;;;;;;;;;;;;;;;;5037447;28;20055;-79
2023/03/15 14:09:28;;;;;;;5.28;3.95;;;;;;;;;;5054653;28;19915;-78
2023/03/15 14:11:53;;;;;;;;;;;;;;;;;;5055581;28;20042;-78
2023/03/15 14:14:20;;;;;;;7.22;3.90;;;;;;;;;;5054451;28;19915;-80
2023/03/15 14:16:46;;;;;;;6.40;4.15;;;;;;;;;;5055086;28;20068;-79
2023/03/15 14:19:12;;;;;;;;;;;;;;;;;;5037250;28;20102;-78
2023/03/15 14:21:37;;;;;;;6.53;4.38;;;;;;;;;;5054860;28;19928;-78
2023/03/15 14:24:03;;;;;;;;;;;;;;;;;;5055310;28;20044;-78
2023/03/15 14:26:28;;;;;;;7.15;4.35;;;;;;;;;;5055013;28;20003;-79
2023/03/15 14:28:53;;;;;;;;;;;;;;;;;;5037401;28;20379;-80
2023/03/15 14:31:23;;;;;;;7.13;4.00;;;;;;;;;;5054863;28;20415;-77
2023/03/15 14:33:55;;;;;;;5.50;3.88;;;;;;;;;;5055039;28;20037;-82
2023/03/15 14:36:31;;;;;;;5.25;4.10;;;;;;;;;;5037936;28;20047;-79
2023/03/15 14:38:57;;;;;;;6.93;3.97;;;;;;;;;;5003569;28;20035;-80
2023/03/15 14:41:24;;;;;;;7.10;4.45;;;;;;;;;;5054310;28;20059;-79
2023/03/15 14:43:50;;;;;;;6.20;3.88;;;;;;;;;;5039473;28;20481;-80
2023/03/15 14:46:15;;;;;;;;;;;;;;;;;;5042939;28;20087;-78
2023/03/15 14:48:41;;;;;;;5.93;3.42;;;;;;;;;;5044747;28;20115;-80
2023/03/15 14:51:09;;;;;;;6.07;3.75;;;;;;;;;;5026583;28;20659;-79
2023/03/15 14:53:35;;;;;;;5.25;3.90;;;;;;;;;;5018614;28;20094;-79
2023/03/15 14:56:00;;;;;;;;;;;;;;;;;;5050045;28;20061;-78
2023/03/15 14:58:25;;;;;;;7.97;4.18;;;;;;;;;;5035097;28;20295;-79